sensor_id;sensor_type;location;lat;lon;timestamp;P1;durP1;ratioP1;P2;durP2;ratioP2
4011;SDS011;2020;48.682;9.024;2022-12-11T00:01:20;24.60;;;15.27;;
4011;SDS011;2020;48.682;9.024;2022-12-11T00:03:46;24.40;;;16.27;;
4011;SDS011;2020;48.682;9.024;2022-12-11T00:06:13;23.30;;;15.27;;
4011;SDS011;2020;48.682;9.024;2022-12-11T00:08:40;23.47;;;15.87;;
4011;SDS011;2020;48.682;9.024;2022-12-11T00:11:09;22.30;;;14.90;;
4011;SDS011;2020;48.682;9.024;2022-12-11T00:13:36;23.57;;;15.63;;
4011;SDS011;2020;48.682;9.024;2022-12-11T00:16:02;23.80;;;16.07;;
4011;SDS011;2020;48.682;9.024;2022-12-11T00:18:27;25.33;;;15.80;;
4011;SDS011;2020;48.682;9.024;2022-12-11T00:20:52;25.70;;;15.40;;
4011;SDS011;2020;48.682;9.024;2022-12-11T00:23:18;24.17;;;14.80;;
4011;SDS011;2020;48.682;9.024;2022-12-11T00:25:44;22.63;;;15.10;;
4011;SDS011;2020;48.682;9.024;2022-12-11T00:28:10;23.60;;;13.80;;
4011;SDS011;2020;48.682;9.024;2022-12-11T00:30:40;22.30;;;18.00;;
4011;SDS011;2020;48.682;9.024;2022-12-11T00:33:06;25.03;;;16.13;;
4011;SDS011;2020;48.682;9.024;2022-12-11T00:35:32;27.47;;;16.90;;
4011;SDS011;2020;48.682;9.024;2022-12-11T00:37:57;24.27;;;14.53;;
4011;SDS011;2020;48.682;9.024;2022-12-11T00:40:23;19.67;;;13.90;;
4011;SDS011;2020;48.682;9.024;2022-12-11T00:42:48;20.80;;;14.47;;
4011;SDS011;2020;48.682;9.024;2022-12-11T00:45:13;17.20;;;13.80;;
4011;SDS011;2020;48.682;9.024;2022-12-11T00:47:39;22.67;;;14.10;;
4011;SDS011;2020;48.682;9.024;2022-12-11T00:50:04;20.80;;;15.00;;
4011;SDS011;2020;48.682;9.024;2022-12-11T00:52:30;25.63;;;16.60;;
4011;SDS011;2020;48.682;9.024;2022-12-11T00:54:55;25.60;;;17.00;;
4011;SDS011;2020;48.682;9.024;2022-12-11T00:57:20;27.97;;;17.07;;
4011;SDS011;2020;48.682;9.024;2022-12-11T00:59:46;18.17;;;14.23;;
4011;SDS011;2020;48.682;9.024;2022-12-11T01:02:11;20.13;;;13.80;;
4011;SDS011;2020;48.682;9.024;2022-12-11T01:04:36;19.87;;;14.60;;
4011;SDS011;2020;48.682;9.024;2022-12-11T01:07:02;21.63;;;13.70;;
4011;SDS011;2020;48.682;9.024;2022-12-11T01:09:27;23.80;;;13.20;;
4011;SDS011;2020;48.682;9.024;2022-12-11T01:12:10;15.20;;;11.30;;
4011;SDS011;2020;48.682;9.024;2022-12-11T01:14:36;19.30;;;12.60;;
4011;SDS011;2020;48.682;9.024;2022-12-11T01:17:01;17.63;;;12.33;;
4011;SDS011;2020;48.682;9.024;2022-12-11T01:19:26;20.20;;;12.43;;
4011;SDS011;2020;48.682;9.024;2022-12-11T01:21:52;19.43;;;11.80;;
4011;SDS011;2020;48.682;9.024;2022-12-11T01:24:18;13.80;;;11.40;;
4011;SDS011;2020;48.682;9.024;2022-12-11T01:26:43;22.10;;;14.10;;
4011;SDS011;2020;48.682;9.024;2022-12-11T01:29:08;21.10;;;14.77;;
4011;SDS011;2020;48.682;9.024;2022-12-11T01:31:33;20.90;;;13.70;;
4011;SDS011;2020;48.682;9.024;2022-12-11T01:33:59;21.67;;;13.23;;
4011;SDS011;2020;48.682;9.024;2022-12-11T01:36:24;20.40;;;13.20;;
4011;SDS011;2020;48.682;9.024;2022-12-11T01:38:49;15.20;;;12.10;;
4011;SDS011;2020;48.682;9.024;2022-12-11T01:41:15;15.90;;;12.00;;
4011;SDS011;2020;48.682;9.024;2022-12-11T01:46:45;18.37;;;12.90;;
4011;SDS011;2020;48.682;9.024;2022-12-11T01:49:11;14.53;;;9.77;;
4011;SDS011;2020;48.682;9.024;2022-12-11T01:51:41;17.03;;;11.67;;
4011;SDS011;2020;48.682;9.024;2022-12-11T01:54:13;18.73;;;14.07;;
4011;SDS011;2020;48.682;9.024;2022-12-11T01:56:41;21.30;;;14.10;;
4011;SDS011;2020;48.682;9.024;2022-12-11T01:59:09;20.07;;;14.10;;
4011;SDS011;2020;48.682;9.024;2022-12-11T02:01:45;20.43;;;13.37;;
4011;SDS011;2020;48.682;9.024;2022-12-11T02:04:15;22.90;;;14.10;;
4011;SDS011;2020;48.682;9.024;2022-12-11T02:06:43;20.80;;;14.07;;
4011;SDS011;2020;48.682;9.024;2022-12-11T02:09:12;21.10;;;13.67;;
4011;SDS011;2020;48.682;9.024;2022-12-11T02:17:13;17.80;;;13.47;;
4011;SDS011;2020;48.682;9.024;2022-12-11T02:27:52;21.47;;;13.50;;
4011;SDS011;2020;48.682;9.024;2022-12-11T02:30:22;20.20;;;13.10;;
4011;SDS011;2020;48.682;9.024;2022-12-11T02:32:55;24.10;;;14.00;;
4011;SDS011;2020;48.682;9.024;2022-12-11T02:35:23;17.93;;;11.90;;
4011;SDS011;2020;48.682;9.024;2022-12-11T02:37:56;20.70;;;13.10;;
4011;SDS011;2020;48.682;9.024;2022-12-11T02:40:27;20.83;;;13.90;;
4011;SDS011;2020;48.682;9.024;2022-12-11T02:42:55;20.40;;;13.43;;
4011;SDS011;2020;48.682;9.024;2022-12-11T02:45:23;23.50;;;13.03;;
4011;SDS011;2020;48.682;9.024;2022-12-11T02:47:51;23.20;;;13.87;;
4011;SDS011;2020;48.682;9.024;2022-12-11T02:50:17;20.93;;;13.93;;
4011;SDS011;2020;48.682;9.024;2022-12-11T02:52:45;20.70;;;13.47;;
4011;SDS011;2020;48.682;9.024;2022-12-11T02:55:14;19.57;;;13.77;;
4011;SDS011;2020;48.682;9.024;2022-12-11T02:57:48;15.13;;;10.93;;
4011;SDS011;2020;48.682;9.024;2022-12-11T03:00:17;14.23;;;11.13;;
4011;SDS011;2020;48.682;9.024;2022-12-11T03:02:43;13.90;;;11.60;;
4011;SDS011;2020;48.682;9.024;2022-12-11T03:05:10;15.37;;;10.73;;
4011;SDS011;2020;48.682;9.024;2022-12-11T03:07:38;18.93;;;11.60;;
4011;SDS011;2020;48.682;9.024;2022-12-11T03:10:06;21.27;;;11.97;;
4011;SDS011;2020;48.682;9.024;2022-12-11T03:12:34;13.00;;;10.30;;
4011;SDS011;2020;48.682;9.024;2022-12-11T03:15:03;17.07;;;12.03;;
4011;SDS011;2020;48.682;9.024;2022-12-11T03:17:38;12.07;;;9.60;;
4011;SDS011;2020;48.682;9.024;2022-12-11T03:20:23;16.97;;;10.60;;
4011;SDS011;2020;48.682;9.024;2022-12-11T03:23:11;14.87;;;11.10;;
4011;SDS011;2020;48.682;9.024;2022-12-11T03:26:04;12.23;;;10.07;;
4011;SDS011;2020;48.682;9.024;2022-12-11T03:31:44;14.70;;;10.40;;
4011;SDS011;2020;48.682;9.024;2022-12-11T03:34:19;14.03;;;9.80;;
4011;SDS011;2020;48.682;9.024;2022-12-11T03:36:49;14.17;;;9.50;;
4011;SDS011;2020;48.682;9.024;2022-12-11T03:39:18;15.10;;;10.03;;
4011;SDS011;2020;48.682;9.024;2022-12-11T03:41:48;10.83;;;9.13;;
4011;SDS011;2020;48.682;9.024;2022-12-11T03:44:16;11.77;;;9.40;;
4011;SDS011;2020;48.682;9.024;2022-12-11T03:46:43;15.33;;;10.23;;
4011;SDS011;2020;48.682;9.024;2022-12-11T03:49:15;18.20;;;9.67;;
4011;SDS011;2020;48.682;9.024;2022-12-11T03:51:43;14.03;;;9.80;;
4011;SDS011;2020;48.682;9.024;2022-12-11T03:54:10;11.10;;;9.73;;
4011;SDS011;2020;48.682;9.024;2022-12-11T03:56:36;14.17;;;10.73;;
4011;SDS011;2020;48.682;9.024;2022-12-11T03:59:04;15.83;;;10.60;;
4011;SDS011;2020;48.682;9.024;2022-12-11T04:01:29;13.80;;;10.03;;
4011;SDS011;2020;48.682;9.024;2022-12-11T04:03:54;11.23;;;8.27;;
4011;SDS011;2020;48.682;9.024;2022-12-11T04:06:20;12.57;;;10.07;;
4011;SDS011;2020;48.682;9.024;2022-12-11T04:08:45;13.87;;;9.40;;
4011;SDS011;2020;48.682;9.024;2022-12-11T04:11:10;17.93;;;10.40;;
4011;SDS011;2020;48.682;9.024;2022-12-11T04:13:54;9.87;;;8.77;;
4011;SDS011;2020;48.682;9.024;2022-12-11T04:16:38;12.77;;;9.57;;
4011;SDS011;2020;48.682;9.024;2022-12-11T04:19:03;13.50;;;9.90;;
4011;SDS011;2020;48.682;9.024;2022-12-11T04:21:47;11.40;;;10.23;;
4011;SDS011;2020;48.682;9.024;2022-12-11T04:24:31;12.73;;;9.20;;
4011;SDS011;2020;48.682;9.024;2022-12-11T04:26:56;10.57;;;9.10;;
4011;SDS011;2020;48.682;9.024;2022-12-11T04:29:22;13.93;;;10.00;;
4011;SDS011;2020;48.682;9.024;2022-12-11T04:31:47;17.27;;;10.60;;
4011;SDS011;2020;48.682;9.024;2022-12-11T04:34:12;13.90;;;9.73;;
4011;SDS011;2020;48.682;9.024;2022-12-11T04:36:37;11.57;;;9.20;;
4011;SDS011;2020;48.682;9.024;2022-12-11T04:39:03;10.43;;;9.27;;
4011;SDS011;2020;48.682;9.024;2022-12-11T04:41:29;15.47;;;10.23;;
4011;SDS011;2020;48.682;9.024;2022-12-11T04:43:55;12.83;;;10.03;;
4011;SDS011;2020;48.682;9.024;2022-12-11T04:46:22;16.10;;;10.17;;
4011;SDS011;2020;48.682;9.024;2022-12-11T04:48:48;12.73;;;10.80;;
4011;SDS011;2020;48.682;9.024;2022-12-11T04:51:14;16.30;;;10.77;;
4011;SDS011;2020;48.682;9.024;2022-12-11T04:53:39;13.03;;;9.37;;
4011;SDS011;2020;48.682;9.024;2022-12-11T04:56:09;13.10;;;11.20;;
4011;SDS011;2020;48.682;9.024;2022-12-11T04:58:36;15.07;;;10.00;;
4011;SDS011;2020;48.682;9.024;2022-12-11T05:01:16;12.90;;;9.87;;
4011;SDS011;2020;48.682;9.024;2022-12-11T05:03:44;13.77;;;10.00;;
4011;SDS011;2020;48.682;9.024;2022-12-11T05:06:10;11.43;;;8.77;;
4011;SDS011;2020;48.682;9.024;2022-12-11T05:08:37;17.47;;;11.50;;
4011;SDS011;2020;48.682;9.024;2022-12-11T05:11:05;16.10;;;9.50;;
4011;SDS011;2020;48.682;9.024;2022-12-11T05:13:34;12.87;;;10.20;;
4011;SDS011;2020;48.682;9.024;2022-12-11T05:16:00;12.77;;;9.97;;
4011;SDS011;2020;48.682;9.024;2022-12-11T05:18:28;16.60;;;10.00;;
4011;SDS011;2020;48.682;9.024;2022-12-11T05:20:54;10.97;;;8.60;;
4011;SDS011;2020;48.682;9.024;2022-12-11T05:23:20;11.30;;;9.17;;
4011;SDS011;2020;48.682;9.024;2022-12-11T05:25:55;13.17;;;9.67;;
4011;SDS011;2020;48.682;9.024;2022-12-11T05:28:23;15.83;;;9.63;;
4011;SDS011;2020;48.682;9.024;2022-12-11T05:30:53;12.07;;;8.40;;
4011;SDS011;2020;48.682;9.024;2022-12-11T05:33:23;13.90;;;9.03;;
4011;SDS011;2020;48.682;9.024;2022-12-11T05:35:48;13.47;;;9.50;;
4011;SDS011;2020;48.682;9.024;2022-12-11T05:38:14;13.90;;;10.30;;
4011;SDS011;2020;48.682;9.024;2022-12-11T05:40:39;15.47;;;11.37;;
4011;SDS011;2020;48.682;9.024;2022-12-11T05:43:04;13.00;;;10.30;;
4011;SDS011;2020;48.682;9.024;2022-12-11T05:45:30;13.93;;;11.23;;
4011;SDS011;2020;48.682;9.024;2022-12-11T05:47:55;11.97;;;9.87;;
4011;SDS011;2020;48.682;9.024;2022-12-11T05:50:20;13.50;;;10.73;;
4011;SDS011;2020;48.682;9.024;2022-12-11T05:52:46;13.73;;;10.10;;
4011;SDS011;2020;48.682;9.024;2022-12-11T05:55:12;16.90;;;11.10;;
4011;SDS011;2020;48.682;9.024;2022-12-11T05:57:37;19.93;;;10.90;;
4011;SDS011;2020;48.682;9.024;2022-12-11T06:00:03;14.40;;;11.03;;
4011;SDS011;2020;48.682;9.024;2022-12-11T06:02:29;16.70;;;12.33;;
4011;SDS011;2020;48.682;9.024;2022-12-11T06:04:54;15.87;;;10.03;;
4011;SDS011;2020;48.682;9.024;2022-12-11T06:07:20;13.60;;;10.60;;
4011;SDS011;2020;48.682;9.024;2022-12-11T06:09:45;14.37;;;10.30;;
4011;SDS011;2020;48.682;9.024;2022-12-11T06:12:10;12.17;;;10.17;;
4011;SDS011;2020;48.682;9.024;2022-12-11T06:14:36;11.87;;;8.60;;
4011;SDS011;2020;48.682;9.024;2022-12-11T06:17:01;14.93;;;10.43;;
4011;SDS011;2020;48.682;9.024;2022-12-11T06:19:26;16.20;;;11.90;;
4011;SDS011;2020;48.682;9.024;2022-12-11T06:21:52;18.70;;;11.30;;
4011;SDS011;2020;48.682;9.024;2022-12-11T06:24:17;15.97;;;10.80;;
4011;SDS011;2020;48.682;9.024;2022-12-11T06:26:42;16.77;;;10.00;;
4011;SDS011;2020;48.682;9.024;2022-12-11T06:29:07;11.50;;;10.37;;
4011;SDS011;2020;48.682;9.024;2022-12-11T06:31:33;13.57;;;10.03;;
4011;SDS011;2020;48.682;9.024;2022-12-11T06:33:58;15.00;;;9.80;;
4011;SDS011;2020;48.682;9.024;2022-12-11T06:36:23;11.03;;;9.27;;
4011;SDS011;2020;48.682;9.024;2022-12-11T06:38:49;17.57;;;10.73;;
4011;SDS011;2020;48.682;9.024;2022-12-11T06:41:15;17.40;;;11.77;;
4011;SDS011;2020;48.682;9.024;2022-12-11T06:43:40;12.27;;;11.03;;
4011;SDS011;2020;48.682;9.024;2022-12-11T06:46:07;14.20;;;10.10;;
4011;SDS011;2020;48.682;9.024;2022-12-11T06:48:35;16.63;;;10.40;;
4011;SDS011;2020;48.682;9.024;2022-12-11T06:51:08;15.60;;;9.67;;
4011;SDS011;2020;48.682;9.024;2022-12-11T06:53:38;16.23;;;10.50;;
4011;SDS011;2020;48.682;9.024;2022-12-11T06:56:05;15.77;;;11.00;;
4011;SDS011;2020;48.682;9.024;2022-12-11T06:58:35;14.27;;;9.80;;
4011;SDS011;2020;48.682;9.024;2022-12-11T07:01:02;17.97;;;10.23;;
4011;SDS011;2020;48.682;9.024;2022-12-11T07:03:27;15.20;;;10.20;;
4011;SDS011;2020;48.682;9.024;2022-12-11T07:05:53;14.03;;;9.57;;
4011;SDS011;2020;48.682;9.024;2022-12-11T07:08:18;14.20;;;10.30;;
4011;SDS011;2020;48.682;9.024;2022-12-11T07:10:43;25.87;;;11.30;;
4011;SDS011;2020;48.682;9.024;2022-12-11T07:13:09;16.93;;;11.00;;
4011;SDS011;2020;48.682;9.024;2022-12-11T07:15:35;12.90;;;9.10;;
4011;SDS011;2020;48.682;9.024;2022-12-11T07:18:00;16.23;;;11.37;;
4011;SDS011;2020;48.682;9.024;2022-12-11T07:20:26;20.10;;;10.17;;
4011;SDS011;2020;48.682;9.024;2022-12-11T07:22:52;15.50;;;11.20;;
4011;SDS011;2020;48.682;9.024;2022-12-11T07:25:18;18.80;;;10.60;;
4011;SDS011;2020;48.682;9.024;2022-12-11T07:27:43;17.10;;;11.33;;
4011;SDS011;2020;48.682;9.024;2022-12-11T07:30:08;15.67;;;10.83;;
4011;SDS011;2020;48.682;9.024;2022-12-11T07:32:34;13.63;;;11.53;;
4011;SDS011;2020;48.682;9.024;2022-12-11T07:35:00;14.47;;;10.83;;
4011;SDS011;2020;48.682;9.024;2022-12-11T07:37:25;18.10;;;11.43;;
4011;SDS011;2020;48.682;9.024;2022-12-11T07:39:50;13.10;;;10.30;;
4011;SDS011;2020;48.682;9.024;2022-12-11T07:42:15;14.37;;;10.87;;
4011;SDS011;2020;48.682;9.024;2022-12-11T07:44:41;15.00;;;11.43;;
4011;SDS011;2020;48.682;9.024;2022-12-11T07:47:06;15.70;;;11.00;;
4011;SDS011;2020;48.682;9.024;2022-12-11T07:49:31;17.40;;;10.73;;
4011;SDS011;2020;48.682;9.024;2022-12-11T07:51:56;16.60;;;11.23;;
4011;SDS011;2020;48.682;9.024;2022-12-11T07:54:22;13.90;;;10.97;;
4011;SDS011;2020;48.682;9.024;2022-12-11T07:56:47;20.00;;;11.97;;
4011;SDS011;2020;48.682;9.024;2022-12-11T07:59:13;16.97;;;11.90;;
4011;SDS011;2020;48.682;9.024;2022-12-11T08:01:39;14.77;;;11.60;;
4011;SDS011;2020;48.682;9.024;2022-12-11T08:04:07;15.03;;;10.67;;
4011;SDS011;2020;48.682;9.024;2022-12-11T08:06:35;16.40;;;12.70;;
4011;SDS011;2020;48.682;9.024;2022-12-11T08:09:03;20.17;;;12.60;;
4011;SDS011;2020;48.682;9.024;2022-12-11T08:11:30;15.07;;;11.73;;
4011;SDS011;2020;48.682;9.024;2022-12-11T08:13:56;15.07;;;11.90;;
4011;SDS011;2020;48.682;9.024;2022-12-11T08:16:23;16.93;;;11.93;;
4011;SDS011;2020;48.682;9.024;2022-12-11T08:18:48;16.27;;;11.50;;
4011;SDS011;2020;48.682;9.024;2022-12-11T08:21:14;13.97;;;11.27;;
4011;SDS011;2020;48.682;9.024;2022-12-11T08:23:42;14.00;;;10.97;;
4011;SDS011;2020;48.682;9.024;2022-12-11T08:26:09;15.60;;;10.30;;
4011;SDS011;2020;48.682;9.024;2022-12-11T08:28:37;13.33;;;11.10;;
4011;SDS011;2020;48.682;9.024;2022-12-11T08:31:03;11.23;;;9.20;;
4011;SDS011;2020;48.682;9.024;2022-12-11T08:33:30;13.10;;;10.30;;
4011;SDS011;2020;48.682;9.024;2022-12-11T08:35:56;15.43;;;11.63;;
4011;SDS011;2020;48.682;9.024;2022-12-11T08:38:21;12.70;;;10.57;;
4011;SDS011;2020;48.682;9.024;2022-12-11T08:40:47;14.27;;;10.43;;
4011;SDS011;2020;48.682;9.024;2022-12-11T08:43:12;17.53;;;11.30;;
4011;SDS011;2020;48.682;9.024;2022-12-11T08:45:37;13.00;;;9.97;;
4011;SDS011;2020;48.682;9.024;2022-12-11T08:48:03;12.57;;;9.90;;
4011;SDS011;2020;48.682;9.024;2022-12-11T08:50:29;12.07;;;9.73;;
4011;SDS011;2020;48.682;9.024;2022-12-11T08:52:54;16.17;;;11.10;;
4011;SDS011;2020;48.682;9.024;2022-12-11T08:55:19;15.33;;;10.43;;
4011;SDS011;2020;48.682;9.024;2022-12-11T08:57:45;14.53;;;10.87;;
4011;SDS011;2020;48.682;9.024;2022-12-11T09:00:12;15.87;;;11.40;;
4011;SDS011;2020;48.682;9.024;2022-12-11T09:02:37;18.63;;;11.87;;
4011;SDS011;2020;48.682;9.024;2022-12-11T09:05:03;14.83;;;10.50;;
4011;SDS011;2020;48.682;9.024;2022-12-11T09:07:31;18.17;;;12.13;;
4011;SDS011;2020;48.682;9.024;2022-12-11T09:09:57;14.93;;;11.33;;
4011;SDS011;2020;48.682;9.024;2022-12-11T09:12:23;16.07;;;11.37;;
4011;SDS011;2020;48.682;9.024;2022-12-11T09:14:48;19.27;;;11.83;;
4011;SDS011;2020;48.682;9.024;2022-12-11T09:17:13;17.77;;;13.00;;
4011;SDS011;2020;48.682;9.024;2022-12-11T09:19:38;14.80;;;10.63;;
4011;SDS011;2020;48.682;9.024;2022-12-11T09:22:04;14.87;;;10.90;;
4011;SDS011;2020;48.682;9.024;2022-12-11T09:24:29;15.00;;;10.90;;
4011;SDS011;2020;48.682;9.024;2022-12-11T09:26:54;14.53;;;10.33;;
4011;SDS011;2020;48.682;9.024;2022-12-11T09:29:19;11.40;;;9.43;;
4011;SDS011;2020;48.682;9.024;2022-12-11T09:31:45;14.80;;;9.33;;
4011;SDS011;2020;48.682;9.024;2022-12-11T09:34:11;13.33;;;9.53;;
4011;SDS011;2020;48.682;9.024;2022-12-11T09:36:38;14.17;;;9.90;;
4011;SDS011;2020;48.682;9.024;2022-12-11T09:39:05;16.07;;;11.27;;
4011;SDS011;2020;48.682;9.024;2022-12-11T09:41:34;15.73;;;10.63;;
4011;SDS011;2020;48.682;9.024;2022-12-11T09:44:05;14.67;;;10.50;;
4011;SDS011;2020;48.682;9.024;2022-12-11T09:46:46;17.93;;;9.50;;
4011;SDS011;2020;48.682;9.024;2022-12-11T09:49:55;15.50;;;10.63;;
4011;SDS011;2020;48.682;9.024;2022-12-11T09:52:19;11.30;;;8.50;;
4011;SDS011;2020;48.682;9.024;2022-12-11T09:54:56;14.00;;;10.53;;
4011;SDS011;2020;48.682;9.024;2022-12-11T09:57:42;11.83;;;9.00;;
4011;SDS011;2020;48.682;9.024;2022-12-11T10:17:08;14.23;;;8.63;;
4011;SDS011;2020;48.682;9.024;2022-12-11T10:19:38;10.60;;;8.23;;
4011;SDS011;2020;48.682;9.024;2022-12-11T10:22:07;9.30;;;7.83;;
4011;SDS011;2020;48.682;9.024;2022-12-11T10:24:43;10.10;;;8.07;;
4011;SDS011;2020;48.682;9.024;2022-12-11T10:29:45;10.97;;;8.37;;
4011;SDS011;2020;48.682;9.024;2022-12-11T10:32:20;8.80;;;7.30;;
4011;SDS011;2020;48.682;9.024;2022-12-11T10:34:48;15.93;;;8.87;;
4011;SDS011;2020;48.682;9.024;2022-12-11T10:37:23;8.30;;;6.20;;
4011;SDS011;2020;48.682;9.024;2022-12-11T10:39:48;10.70;;;8.73;;
4011;SDS011;2020;48.682;9.024;2022-12-11T10:42:20;12.20;;;7.50;;
4011;SDS011;2020;48.682;9.024;2022-12-11T10:44:57;14.30;;;8.80;;
4011;SDS011;2020;48.682;9.024;2022-12-11T10:47:25;8.37;;;7.53;;
4011;SDS011;2020;48.682;9.024;2022-12-11T10:49:52;12.60;;;8.00;;
4011;SDS011;2020;48.682;9.024;2022-12-11T10:52:34;11.70;;;8.20;;
4011;SDS011;2020;48.682;9.024;2022-12-11T10:57:32;9.57;;;8.60;;
4011;SDS011;2020;48.682;9.024;2022-12-11T11:00:00;12.70;;;9.23;;
4011;SDS011;2020;48.682;9.024;2022-12-11T11:02:37;12.07;;;8.10;;
4011;SDS011;2020;48.682;9.024;2022-12-11T11:05:15;11.50;;;7.83;;
4011;SDS011;2020;48.682;9.024;2022-12-11T11:07:50;11.83;;;8.70;;
4011;SDS011;2020;48.682;9.024;2022-12-11T11:10:26;8.60;;;7.73;;
4011;SDS011;2020;48.682;9.024;2022-12-11T11:12:59;18.80;;;9.83;;
4011;SDS011;2020;48.682;9.024;2022-12-11T11:15:26;11.50;;;8.60;;
4011;SDS011;2020;48.682;9.024;2022-12-11T11:17:54;9.43;;;8.03;;
4011;SDS011;2020;48.682;9.024;2022-12-11T11:20:33;9.30;;;7.60;;
4011;SDS011;2020;48.682;9.024;2022-12-11T11:23:00;10.53;;;8.10;;
4011;SDS011;2020;48.682;9.024;2022-12-11T11:25:28;17.13;;;9.47;;
4011;SDS011;2020;48.682;9.024;2022-12-11T11:28:04;9.70;;;8.50;;
4011;SDS011;2020;48.682;9.024;2022-12-11T11:30:38;11.77;;;8.70;;
4011;SDS011;2020;48.682;9.024;2022-12-11T11:33:12;13.63;;;9.40;;
4011;SDS011;2020;48.682;9.024;2022-12-11T11:35:50;8.53;;;7.27;;
4011;SDS011;2020;48.682;9.024;2022-12-11T11:38:18;11.43;;;7.97;;
4011;SDS011;2020;48.682;9.024;2022-12-11T11:46:12;7.87;;;7.00;;
4011;SDS011;2020;48.682;9.024;2022-12-11T11:48:42;16.83;;;8.33;;
4011;SDS011;2020;48.682;9.024;2022-12-11T11:53:46;13.43;;;9.83;;
4011;SDS011;2020;48.682;9.024;2022-12-11T11:56:17;11.17;;;8.53;;
4011;SDS011;2020;48.682;9.024;2022-12-11T11:59:02;17.47;;;12.43;;
4011;SDS011;2020;48.682;9.024;2022-12-11T12:01:35;13.93;;;10.47;;
4011;SDS011;2020;48.682;9.024;2022-12-11T12:04:01;14.73;;;10.63;;
4011;SDS011;2020;48.682;9.024;2022-12-11T12:06:42;19.43;;;11.77;;
4011;SDS011;2020;48.682;9.024;2022-12-11T12:09:23;11.33;;;9.93;;
4011;SDS011;2020;48.682;9.024;2022-12-11T12:12:02;16.63;;;11.63;;
4011;SDS011;2020;48.682;9.024;2022-12-11T12:14:35;11.63;;;8.07;;
4011;SDS011;2020;48.682;9.024;2022-12-11T12:20:34;12.77;;;8.70;;
4011;SDS011;2020;48.682;9.024;2022-12-11T12:28:33;8.43;;;7.00;;
4011;SDS011;2020;48.682;9.024;2022-12-11T12:31:10;10.33;;;8.30;;
4011;SDS011;2020;48.682;9.024;2022-12-11T12:36:17;13.03;;;8.77;;
4011;SDS011;2020;48.682;9.024;2022-12-11T12:39:02;8.20;;;7.17;;
4011;SDS011;2020;48.682;9.024;2022-12-11T12:41:42;8.10;;;7.30;;
4011;SDS011;2020;48.682;9.024;2022-12-11T12:44:19;11.47;;;7.97;;
4011;SDS011;2020;48.682;9.024;2022-12-11T12:46:52;13.47;;;8.43;;
4011;SDS011;2020;48.682;9.024;2022-12-11T12:49:33;10.57;;;9.17;;
4011;SDS011;2020;48.682;9.024;2022-12-11T12:52:02;8.17;;;7.30;;
4011;SDS011;2020;48.682;9.024;2022-12-11T12:54:30;11.07;;;8.40;;
4011;SDS011;2020;48.682;9.024;2022-12-11T12:56:59;10.90;;;9.30;;
4011;SDS011;2020;48.682;9.024;2022-12-11T12:59:26;13.60;;;8.50;;
4011;SDS011;2020;48.682;9.024;2022-12-11T13:01:53;11.53;;;8.43;;
4011;SDS011;2020;48.682;9.024;2022-12-11T13:04:26;10.10;;;8.47;;
4011;SDS011;2020;48.682;9.024;2022-12-11T13:06:58;7.43;;;6.53;;
4011;SDS011;2020;48.682;9.024;2022-12-11T13:09:35;9.10;;;7.47;;
4011;SDS011;2020;48.682;9.024;2022-12-11T13:12:00;17.43;;;7.47;;
4011;SDS011;2020;48.682;9.024;2022-12-11T13:14:38;7.50;;;6.80;;
4011;SDS011;2020;48.682;9.024;2022-12-11T13:17:19;10.37;;;7.00;;
4011;SDS011;2020;48.682;9.024;2022-12-11T13:19:48;13.10;;;8.70;;
4011;SDS011;2020;48.682;9.024;2022-12-11T13:22:20;10.50;;;8.13;;
4011;SDS011;2020;48.682;9.024;2022-12-11T13:27:23;9.63;;;7.37;;
4011;SDS011;2020;48.682;9.024;2022-12-11T13:32:59;11.63;;;6.83;;
4011;SDS011;2020;48.682;9.024;2022-12-11T13:35:28;6.83;;;5.70;;
4011;SDS011;2020;48.682;9.024;2022-12-11T13:37:58;9.47;;;6.90;;
4011;SDS011;2020;48.682;9.024;2022-12-11T13:40:31;6.70;;;6.00;;
4011;SDS011;2020;48.682;9.024;2022-12-11T13:43:02;8.10;;;6.43;;
4011;SDS011;2020;48.682;9.024;2022-12-11T13:45:47;8.60;;;7.10;;
4011;SDS011;2020;48.682;9.024;2022-12-11T13:51:25;9.10;;;7.80;;
4011;SDS011;2020;48.682;9.024;2022-12-11T13:56:39;10.20;;;7.80;;
4011;SDS011;2020;48.682;9.024;2022-12-11T13:59:16;10.10;;;7.10;;
4011;SDS011;2020;48.682;9.024;2022-12-11T14:01:44;10.60;;;7.80;;
4011;SDS011;2020;48.682;9.024;2022-12-11T14:04:10;10.80;;;7.10;;
4011;SDS011;2020;48.682;9.024;2022-12-11T14:06:43;17.93;;;7.80;;
4011;SDS011;2020;48.682;9.024;2022-12-11T14:09:13;8.47;;;7.13;;
4011;SDS011;2020;48.682;9.024;2022-12-11T14:11:44;12.97;;;7.67;;
4011;SDS011;2020;48.682;9.024;2022-12-11T14:14:17;8.93;;;6.97;;
4011;SDS011;2020;48.682;9.024;2022-12-11T14:16:50;13.20;;;8.17;;
4011;SDS011;2020;48.682;9.024;2022-12-11T14:19:19;9.77;;;8.20;;
4011;SDS011;2020;48.682;9.024;2022-12-11T14:21:56;13.93;;;8.57;;
4011;SDS011;2020;48.682;9.024;2022-12-11T14:24:23;7.43;;;6.73;;
4011;SDS011;2020;48.682;9.024;2022-12-11T14:26:49;10.10;;;8.53;;
4011;SDS011;2020;48.682;9.024;2022-12-11T14:29:29;11.60;;;8.60;;
4011;SDS011;2020;48.682;9.024;2022-12-11T14:31:58;9.80;;;8.80;;
4011;SDS011;2020;48.682;9.024;2022-12-11T14:34:36;9.10;;;7.83;;
4011;SDS011;2020;48.682;9.024;2022-12-11T14:37:08;8.60;;;6.67;;
4011;SDS011;2020;48.682;9.024;2022-12-11T14:39:39;10.27;;;8.27;;
4011;SDS011;2020;48.682;9.024;2022-12-11T14:42:20;9.83;;;7.30;;
4011;SDS011;2020;48.682;9.024;2022-12-11T14:47:30;8.60;;;7.60;;
4011;SDS011;2020;48.682;9.024;2022-12-11T14:50:02;9.80;;;8.33;;
4011;SDS011;2020;48.682;9.024;2022-12-11T14:52:32;13.50;;;8.83;;
4011;SDS011;2020;48.682;9.024;2022-12-11T14:55:06;14.43;;;8.73;;
4011;SDS011;2020;48.682;9.024;2022-12-11T14:57:32;8.10;;;7.10;;
4011;SDS011;2020;48.682;9.024;2022-12-11T14:59:59;11.10;;;8.47;;
4011;SDS011;2020;48.682;9.024;2022-12-11T15:05:09;11.60;;;8.40;;
4011;SDS011;2020;48.682;9.024;2022-12-11T15:07:37;10.37;;;8.10;;
4011;SDS011;2020;48.682;9.024;2022-12-11T15:10:04;19.17;;;9.53;;
4011;SDS011;2020;48.682;9.024;2022-12-11T15:12:29;9.60;;;8.60;;
4011;SDS011;2020;48.682;9.024;2022-12-11T15:14:56;9.17;;;8.23;;
4011;SDS011;2020;48.682;9.024;2022-12-11T15:17:25;13.53;;;9.83;;
4011;SDS011;2020;48.682;9.024;2022-12-11T15:19:52;13.17;;;10.60;;
4011;SDS011;2020;48.682;9.024;2022-12-11T15:22:21;14.07;;;9.47;;
4011;SDS011;2020;48.682;9.024;2022-12-11T15:24:50;23.53;;;12.10;;
4011;SDS011;2020;48.682;9.024;2022-12-11T15:27:23;19.57;;;12.73;;
4011;SDS011;2020;48.682;9.024;2022-12-11T15:29:48;20.40;;;14.00;;
4011;SDS011;2020;48.682;9.024;2022-12-11T15:37:29;13.07;;;10.63;;
4011;SDS011;2020;48.682;9.024;2022-12-11T15:39:57;17.97;;;11.60;;
4011;SDS011;2020;48.682;9.024;2022-12-11T15:42:25;18.60;;;10.33;;
4011;SDS011;2020;48.682;9.024;2022-12-11T15:44:51;16.03;;;9.90;;
4011;SDS011;2020;48.682;9.024;2022-12-11T15:47:19;17.20;;;11.10;;
4011;SDS011;2020;48.682;9.024;2022-12-11T15:49:47;15.27;;;10.10;;
4011;SDS011;2020;48.682;9.024;2022-12-11T15:52:12;22.73;;;14.73;;
4011;SDS011;2020;48.682;9.024;2022-12-11T15:54:37;28.67;;;15.50;;
4011;SDS011;2020;48.682;9.024;2022-12-11T15:57:03;27.33;;;16.53;;
4011;SDS011;2020;48.682;9.024;2022-12-11T15:59:31;31.83;;;17.43;;
4011;SDS011;2020;48.682;9.024;2022-12-11T16:01:57;31.33;;;18.50;;
4011;SDS011;2020;48.682;9.024;2022-12-11T16:04:22;25.40;;;15.90;;
4011;SDS011;2020;48.682;9.024;2022-12-11T16:06:48;22.70;;;14.93;;
4011;SDS011;2020;48.682;9.024;2022-12-11T16:09:14;22.03;;;13.67;;
4011;SDS011;2020;48.682;9.024;2022-12-11T16:11:39;25.30;;;14.97;;
4011;SDS011;2020;48.682;9.024;2022-12-11T16:14:05;23.67;;;14.90;;
4011;SDS011;2020;48.682;9.024;2022-12-11T16:16:30;23.63;;;14.90;;
4011;SDS011;2020;48.682;9.024;2022-12-11T16:18:56;26.53;;;15.40;;
4011;SDS011;2020;48.682;9.024;2022-12-11T16:21:21;23.47;;;15.07;;
4011;SDS011;2020;48.682;9.024;2022-12-11T16:23:46;22.33;;;14.80;;
4011;SDS011;2020;48.682;9.024;2022-12-11T16:26:12;20.97;;;15.20;;
4011;SDS011;2020;48.682;9.024;2022-12-11T16:28:38;21.30;;;14.57;;